Aviation Digital Data Service (ADDS)

Output produced by METARs form (1633 UTC 16 June 2019)
found at http://www.aviationweather.gov/metar/data/
 
Forecast for: EKVG (SORVAAG/VAGAR , DK)
Text: TAF EKVG 161425Z 1615/1620 07008KT 9999 BKN015
Forecast period: 1500 to 2000 UTC 16 June 2019
Forecast type: FROM: standard forecast or significant change
Winds: from the ENE (70 degrees) at 9 MPH (8 knots; 4.1 m/s)
Visibility: 6 or more miles 10+ km)
Ceiling: 1500 feet AGL
Clouds: broken clouds at 1500 feet AGL
Weather: no significant weather forecast for this period
Text: TEMPO 1615/1620 RADZ BKN008
Forecast period: 1500 to 2000 UTC 16 June 2019
Forecast type: TEMPORARY: The following changes expected for less than half the time period
Visibility: missing
Ceiling: 800 feet AGL
Clouds: broken clouds at 800 feet AGL
Weather: RA DZ  (moderate rain, moderate drizzle)